Time;durP1;ratioP1;P1;durP2;ratioP2;P2;SDS_P1;SDS_P2;PMS_P1;PMS_P2;Temp;Humidity;BMP_temperature;BMP_pressure;BME280_temperature;BME280_humidity;BME280_pressure;Samples;Min_cycle;Max_cycle;Signal;HPM_P1;HPM_P2
2023/06/12 00:01:40;;;;;;;;;;;19.70;56.90;;;;;;5044424;28;19914;-81
2023/06/12 00:04:08;;;;;;;;;;;19.60;57.30;;;;;;5013593;28;19913;-80
2023/06/12 00:06:35;;;;;;;;;;;19.60;57.50;;;;;;5022952;28;19952;-80
2023/06/12 00:09:01;;;;;;;;;;;19.50;57.50;;;;;;5022945;28;19920;-81
2023/06/12 00:11:27;;;;;;;;;;;19.50;56.70;;;;;;5033310;28;19921;-79
2023/06/12 00:13:52;;;;;;;;;;;19.50;57.40;;;;;;5040855;28;19963;-80
2023/06/12 00:16:18;;;;;;;;;;;19.60;56.90;;;;;;5041542;28;19917;-81
2023/06/12 00:18:43;;;;;;;;;;;19.50;57.40;;;;;;5014479;28;19952;-80
2023/06/12 00:21:10;;;;;;;;;;;19.50;57.00;;;;;;5022815;28;19925;-79
2023/06/12 00:23:39;;;;;;;;;;;19.50;57.50;;;;;;5019989;28;20023;-81
2023/06/12 00:26:04;;;;;;;;;;;19.60;58.00;;;;;;5021874;28;19913;-80
2023/06/12 00:28:30;;;;;;;;;;;19.60;57.70;;;;;;5041955;28;20257;-80
2023/06/12 00:30:56;;;;;;;;;;;19.60;57.50;;;;;;5032517;28;20431;-80
2023/06/12 00:33:21;;;;;;;;;;;19.60;57.90;;;;;;5024120;28;19921;-79
2023/06/12 00:35:47;;;;;;;;;;;19.60;57.60;;;;;;5032635;28;19931;-81
2023/06/12 00:38:14;;;;;;;;;;;19.60;57.20;;;;;;5027119;28;19936;-80
2023/06/12 00:40:40;;;;;;;;;;;19.50;57.20;;;;;;5025218;28;19916;-80
2023/06/12 00:43:05;;;;;;;;;;;19.50;57.50;;;;;;5023410;28;19913;-81
2023/06/12 00:45:31;;;;;;;;;;;19.60;57.10;;;;;;5024383;28;19936;-81
2023/06/12 00:47:57;;;;;;;;;;;19.50;57.30;;;;;;5026382;28;19960;-82
2023/06/12 00:50:28;;;;;;;;;;;19.40;57.80;;;;;;5025195;28;20301;-81
2023/06/12 00:52:55;;;;;;;;;;;19.40;57.50;;;;;;5042543;28;20008;-79
2023/06/12 00:55:20;;;;;;;;;;;19.40;58.60;;;;;;5043381;28;19913;-80
2023/06/12 00:57:47;;;;;;;;;;;19.40;58.50;;;;;;5044258;28;19909;-80
2023/06/12 01:00:14;;;;;;;;;;;19.40;58.30;;;;;;5027332;28;20336;-80
2023/06/12 01:03:04;;;;;;;;;;;19.40;58.40;;;;;;5026780;28;19948;-81
2023/06/12 01:05:33;;;;;;;;;;;19.40;58.20;;;;;;5024545;28;19956;-80
2023/06/12 01:08:04;;;;;;;;;;;19.40;58.20;;;;;;5041979;28;19914;-79
2023/06/12 01:10:30;;;;;;;;;;;19.60;57.40;;;;;;5049248;28;19964;-80
2023/06/12 01:12:57;;;;;;;;;;;19.50;57.50;;;;;;5031234;28;19909;-79
2023/06/12 01:15:22;;;;;;;;;;;19.40;57.90;;;;;;5044329;28;20419;-81
2023/06/12 01:17:47;;;;;;;;;;;19.50;58.20;;;;;;5023830;28;19909;-82
2023/06/12 01:20:13;;;;;;;;;;;19.60;56.80;;;;;;5026079;28;19981;-80
2023/06/12 01:22:45;;;;;;;;;;;19.60;57.30;;;;;;5041968;28;19927;-80
2023/06/12 01:25:13;;;;;;;;;;;19.70;56.90;;;;;;5036863;28;19958;-81
2023/06/12 01:28:00;;;;;;;;;;;19.60;57.60;;;;;;5020978;28;20339;-81
2023/06/12 01:30:30;;;;;;;;;;;19.50;57.30;;;;;;5038885;28;19913;-81
2023/06/12 01:32:59;;;;;;;;;;;19.50;57.80;;;;;;5020552;28;19909;-81
2023/06/12 01:35:27;;;;;;;;;;;19.50;57.50;;;;;;5039048;28;19917;-81
2023/06/12 01:37:56;;;;;;;;;;;19.40;58.00;;;;;;5019931;28;20303;-82
2023/06/12 01:40:22;;;;;;;;;;;19.20;58.60;;;;;;5019917;28;19909;-82
2023/06/12 01:42:47;;;;;;;;;;;19.10;58.50;;;;;;5023181;28;20172;-80
2023/06/12 01:45:13;;;;;;;;;;;19.00;59.00;;;;;;5050983;22;19926;-84
2023/06/12 01:47:41;;;;;;;;;;;19.00;57.40;;;;;;5071084;28;19955;-84
2023/06/12 01:50:20;;;;;;;;;;;;;;;;;;;;;
2023/06/12 01:52:48;;;;;;;;;;;18.90;58.60;;;;;;5078321;28;19924;-84
2023/06/12 01:55:14;;;;;;;;;;;18.80;59.10;;;;;;5052301;28;19924;-84
2023/06/12 01:57:50;;;;;;;;;;;18.80;58.70;;;;;;5054852;28;19958;-85
2023/06/12 02:00:19;;;;;;;;;;;18.80;58.20;;;;;;5093353;28;19915;-83
2023/06/12 02:03:04;;;;;;;;;;;18.80;57.10;;;;;;5052268;28;19924;-84
2023/06/12 02:05:30;;;;;;;;;;;18.90;57.00;;;;;;5055186;28;19935;-84
2023/06/12 02:07:55;;;;;;;;;;;18.90;57.40;;;;;;5055931;28;19913;-83
2023/06/12 02:10:29;;;;;;;;;;;18.90;57.70;;;;;;5070961;28;20315;-85
2023/06/12 02:13:06;;;;;;;;;;;19.00;57.20;;;;;;5054098;28;19912;-85
2023/06/12 02:15:35;;;;;;;;;;;18.90;57.80;;;;;;5049818;28;19944;-85
2023/06/12 02:18:01;;;;;;;;;;;18.90;57.10;;;;;;5052622;28;19920;-85
2023/06/12 02:20:26;;;;;;;;;;;18.90;58.40;;;;;;5061696;28;19917;-85
2023/06/12 02:22:52;;;;;;;;;;;18.90;58.50;;;;;;5041605;28;19924;-85
2023/06/12 02:25:20;;;;;;;;;;;18.90;58.20;;;;;;5054658;28;19943;-85
2023/06/12 02:27:45;;;;;;;;;;;18.90;58.60;;;;;;5053955;28;20362;-84
2023/06/12 02:30:11;;;;;;;;;;;19.00;57.90;;;;;;5053889;28;19955;-85
2023/06/12 02:32:39;;;;;;;;;;;19.00;58.50;;;;;;5052680;28;19917;-84
2023/06/12 02:35:08;;;;;;;;;;;19.00;58.40;;;;;;5053578;28;19908;-84
2023/06/12 02:37:44;;;;;;;;;;;19.00;56.90;;;;;;5055555;28;20046;-85
2023/06/12 02:40:13;;;;;;;;;;;19.00;57.20;;;;;;5068197;28;19955;-85
2023/06/12 02:42:43;;;;;;;;;;;18.80;57.20;;;;;;5058804;28;20370;-85
2023/06/12 02:45:12;;;;;;;;;;;18.80;57.50;;;;;;5051264;28;20008;-85
2023/06/12 02:47:42;;;;;;;;;;;18.60;58.00;;;;;;5059687;28;20012;-85
2023/06/12 02:50:16;;;;;;;;;;;18.60;57.80;;;;;;5054153;28;19920;-85
2023/06/12 02:52:44;;;;;;;;;;;18.60;57.90;;;;;;5053975;28;20455;-84
2023/06/12 02:55:12;;;;;;;;;;;18.50;58.50;;;;;;5049209;28;19920;-85
2023/06/12 02:57:40;;;;;;;;;;;18.40;58.50;;;;;;5055842;28;19917;-85
2023/06/12 03:00:07;;;;;;;;;;;18.40;59.50;;;;;;5052974;28;19912;-85
2023/06/12 03:02:32;;;;;;;;;;;18.50;59.50;;;;;;5072069;28;19924;-84
2023/06/12 03:05:01;;;;;;;;;;;18.50;59.40;;;;;;5071897;28;19909;-85
2023/06/12 03:07:36;;;;;;;;;;;18.30;59.50;;;;;;5053879;28;19925;-85
2023/06/12 03:10:05;;;;;;;;;;;18.30;60.50;;;;;;5043358;28;19916;-84
2023/06/12 03:12:31;;;;;;;;;;;18.40;60.40;;;;;;5063717;28;19970;-84
2023/06/12 03:14:58;;;;;;;;;;;18.30;60.80;;;;;;5055223;28;19956;-83
2023/06/12 03:17:23;;;;;;;;;;;18.20;60.60;;;;;;5067865;28;19919;-84
2023/06/12 03:20:10;;;;;;;;;;;18.10;61.00;;;;;;5075630;28;20084;-85
2023/06/12 03:22:35;;;;;;;;;;;18.20;60.90;;;;;;5066846;28;19912;-84
2023/06/12 03:25:03;;;;;;;;;;;18.20;59.70;;;;;;5050543;28;19916;-84
2023/06/12 03:27:31;;;;;;;;;;;18.10;59.70;;;;;;5081930;28;19916;-84
2023/06/12 03:29:59;;;;;;;;;;;18.10;60.20;;;;;;5047644;28;19970;-84
2023/06/12 03:32:25;;;;;;;;;;;18.00;60.60;;;;;;5053242;28;19920;-85
2023/06/12 03:34:54;;;;;;;;;;;18.10;60.80;;;;;;5054927;28;19912;-84
2023/06/12 03:37:28;;;;;;;;;;;18.10;61.00;;;;;;5060812;28;19924;-85
2023/06/12 03:39:56;;;;;;;;;;;18.10;61.10;;;;;;5053155;28;19916;-84
2023/06/12 03:42:24;;;;;;;;;;;18.10;60.50;;;;;;5065313;28;19920;-84
2023/06/12 03:44:55;;;;;;;;;;;18.00;61.00;;;;;;5066457;28;19966;-85
2023/06/12 03:47:24;;;;;;;;;;;17.90;61.70;;;;;;5055068;28;19904;-84
2023/06/12 03:49:50;;;;;;;;;;;18.00;61.10;;;;;;5084200;28;19924;-85
2023/06/12 03:52:15;;;;;;;;;;;18.00;61.00;;;;;;5052634;28;20365;-85
2023/06/12 03:54:46;;;;;;;;;;;17.90;61.80;;;;;;5055871;28;19942;-83
2023/06/12 03:57:12;;;;;;;;;;;17.90;62.00;;;;;;5055677;28;20267;-84
2023/06/12 03:59:37;;;;;;;;;;;17.90;62.50;;;;;;5060183;28;19920;-85
2023/06/12 04:02:08;;;;;;;;;;;17.90;62.30;;;;;;5071731;28;19912;-85
2023/06/12 04:04:33;;;;;;;;;;;17.90;63.00;;;;;;5048729;28;19973;-84
2023/06/12 04:06:59;;;;;;;;;;;17.90;62.90;;;;;;5070113;28;19916;-84
2023/06/12 04:09:27;;;;;;;;;;;17.90;63.60;;;;;;5054303;28;19931;-85
2023/06/12 04:11:56;;;;;;;;;;;17.90;63.70;;;;;;5055767;28;20373;-86
2023/06/12 04:14:21;;;;;;;;;;;17.90;63.30;;;;;;5053112;28;19918;-84
2023/06/12 04:16:49;;;;;;;;;;;17.90;63.30;;;;;;5052013;28;20354;-84
2023/06/12 04:19:16;;;;;;;;;;;17.90;63.60;;;;;;5056017;28;20178;-85
2023/06/12 04:21:41;;;;;;;;;;;17.90;62.60;;;;;;5051819;28;19916;-84
2023/06/12 04:24:15;;;;;;;;;;;17.90;63.10;;;;;;5054504;28;20302;-85
2023/06/12 04:26:46;;;;;;;;;;;18.00;63.20;;;;;;5054861;28;19915;-84
2023/06/12 04:29:12;;;;;;;;;;;18.10;63.20;;;;;;5055379;28;19974;-84
2023/06/12 04:31:45;;;;;;;;;;;18.10;63.20;;;;;;5051660;28;20406;-85
2023/06/12 04:34:15;;;;;;;;;;;18.10;63.60;;;;;;5053768;28;19913;-83
2023/06/12 04:36:41;;;;;;;;;;;18.20;63.10;;;;;;5056850;28;20396;-84
2023/06/12 04:39:10;;;;;;;;;;;18.20;63.60;;;;;;5052200;28;19909;-84
2023/06/12 04:41:40;;;;;;;;;;;18.20;63.00;;;;;;5068328;28;19912;-85
2023/06/12 04:44:08;;;;;;;;;;;18.20;63.60;;;;;;5074319;28;19912;-88
2023/06/12 04:46:35;;;;;;;;;;;18.30;63.60;;;;;;5076731;28;19924;-85
2023/06/12 04:49:00;;;;;;;;;;;18.30;64.20;;;;;;5050354;28;19912;-85
2023/06/12 04:51:26;;;;;;;;;;;18.40;63.00;;;;;;5070892;28;19908;-85
2023/06/12 04:53:53;;;;;;;;;;;18.50;63.60;;;;;;5057309;28;20033;-84
2023/06/12 04:56:22;;;;;;;;;;;18.50;63.70;;;;;;5050548;28;20373;-84
2023/06/12 04:58:53;;;;;;;;;;;18.70;62.00;;;;;;5068286;28;19916;-88
2023/06/12 05:01:22;;;;;;;;;;;18.70;62.30;;;;;;5051712;28;20218;-87
2023/06/12 05:04:07;;;;;;;;;;;18.70;61.80;;;;;;5069999;28;20003;-85
2023/06/12 05:06:39;;;;;;;;;;;18.70;62.10;;;;;;5055176;28;19915;-86
2023/06/12 05:18:00;;;;;;;;;;;19.00;61.60;;;;;;5061905;28;19959;-85
2023/06/12 05:20:26;;;;;;;;;;;19.20;60.40;;;;;;5074422;28;19909;-86
2023/06/12 05:22:52;;;;;;;;;;;19.30;59.90;;;;;;5074826;28;19915;-86
2023/06/12 05:25:18;;;;;;;;;;;19.50;59.70;;;;;;5065367;28;19916;-87
2023/06/12 05:27:43;;;;;;;;;;;19.50;59.80;;;;;;5052099;28;20021;-86
2023/06/12 05:30:09;;;;;;;;;;;19.50;59.90;;;;;;5056583;28;19924;-84
2023/06/12 05:32:39;;;;;;;;;;;19.50;60.10;;;;;;5064491;28;19923;-82
2023/06/12 05:35:08;;;;;;;;;;;19.50;58.90;;;;;;5069752;28;19916;-83
2023/06/12 05:37:44;;;;;;;;;;;19.60;59.20;;;;;;5072666;28;19913;-84
2023/06/12 05:40:09;;;;;;;;;;;19.60;58.80;;;;;;5061232;28;19909;-83
2023/06/12 05:42:36;;;;;;;;;;;19.60;59.80;;;;;;5076342;28;19913;-83
2023/06/12 05:45:02;;;;;;;;;;;19.80;60.30;;;;;;5078244;28;19916;-87
2023/06/12 05:47:27;;;;;;;;;;;20.00;59.50;;;;;;5072881;28;19924;-83
2023/06/12 05:49:53;;;;;;;;;;;20.20;59.30;;;;;;5070146;28;19920;-83
2023/06/12 05:52:18;;;;;;;;;;;20.40;59.10;;;;;;5074012;28;19924;-83
2023/06/12 05:54:45;;;;;;;;;;;20.50;58.00;;;;;;5074922;28;19924;-83
2023/06/12 05:57:12;;;;;;;;;;;20.70;57.00;;;;;;5077297;28;19919;-83
2023/06/12 05:59:38;;;;;;;;;;;20.50;57.70;;;;;;5056750;28;20570;-83
2023/06/12 06:02:04;;;;;;;;;;;20.50;57.80;;;;;;5054684;28;19913;-83
2023/06/12 06:04:29;;;;;;;;;;;20.50;58.70;;;;;;5065960;28;19912;-81
2023/06/12 06:06:55;;;;;;;;;;;20.50;58.80;;;;;;5057308;28;19908;-82
2023/06/12 06:09:20;;;;;;;;;;;20.40;58.50;;;;;;5055408;28;19916;-83
2023/06/12 06:11:46;;;;;;;;;;;20.40;59.40;;;;;;5072373;28;20424;-83
2023/06/12 06:14:12;;;;;;;;;;;20.40;59.00;;;;;;5065297;28;19909;-83
2023/06/12 06:16:38;;;;;;;;;;;20.40;59.40;;;;;;5053115;28;19912;-83
2023/06/12 06:19:03;;;;;;;;;;;20.50;59.60;;;;;;5047165;28;19999;-83
2023/06/12 06:21:31;;;;;;;;;;;20.50;58.90;;;;;;5083034;28;19969;-84
2023/06/12 06:23:56;;;;;;;;;;;20.60;58.70;;;;;;5068532;28;20323;-84
2023/06/12 06:26:22;;;;;;;;;;;20.60;58.70;;;;;;5065983;28;19988;-84
2023/06/12 06:28:47;;;;;;;;;;;20.60;58.80;;;;;;5076410;28;19968;-85
2023/06/12 06:31:14;;;;;;;;;;;20.60;58.40;;;;;;5066428;28;19952;-83
2023/06/12 06:33:39;;;;;;;;;;;20.70;58.80;;;;;;5048900;28;20301;-84
2023/06/12 06:36:05;;;;;;;;;;;20.80;57.80;;;;;;5071017;28;20003;-83
2023/06/12 06:38:31;;;;;;;;;;;20.90;57.80;;;;;;5069301;28;19921;-84
2023/06/12 06:40:56;;;;;;;;;;;21.00;57.70;;;;;;5069832;28;20332;-85
2023/06/12 06:43:22;;;;;;;;;;;21.10;57.90;;;;;;5054538;28;20317;-83
2023/06/12 06:45:48;;;;;;;;;;;21.20;57.40;;;;;;5062119;28;19920;-83
2023/06/12 06:48:14;;;;;;;;;;;21.30;57.30;;;;;;5061725;28;19939;-86
2023/06/12 06:50:40;;;;;;;;;;;21.50;56.00;;;;;;5061173;28;19944;-84
2023/06/12 06:53:13;;;;;;;;;;;21.60;56.50;;;;;;5063844;28;19913;-83
2023/06/12 06:55:44;;;;;;;;;;;21.70;56.40;;;;;;5055317;28;20400;-82
2023/06/12 06:58:10;;;;;;;;;;;21.70;56.40;;;;;;5062103;28;20429;-82
2023/06/12 07:00:35;;;;;;;;;;;21.80;55.60;;;;;;5071254;28;19920;-83
2023/06/12 07:03:02;;;;;;;;;;;21.90;55.70;;;;;;5060079;28;19916;-82
2023/06/12 07:05:30;;;;;;;;;;;22.00;55.70;;;;;;5058522;28;19917;-83
2023/06/12 07:07:58;;;;;;;;;;;22.10;55.40;;;;;;5071940;28;20477;-83
2023/06/12 07:10:27;;;;;;;;;;;22.10;54.80;;;;;;5061095;28;19948;-83
2023/06/12 07:12:56;;;;;;;;;;;22.10;54.60;;;;;;5072247;28;19970;-83
2023/06/12 07:15:23;;;;;;;;;;;22.30;54.20;;;;;;5052396;28;19919;-82
2023/06/12 07:21:14;;;;;;;;;;;22.50;53.80;;;;;;4974184;28;19994;-81
2023/06/12 07:23:39;;;;;;;;;;;22.50;53.50;;;;;;5065737;28;19912;-83
2023/06/12 07:26:05;;;;;;;;;;;22.50;53.20;;;;;;5070813;28;20394;-82
2023/06/12 07:28:31;;;;;;;;;;;22.60;53.60;;;;;;5052546;28;19913;-82
2023/06/12 07:30:56;;;;;;;;;;;22.80;53.80;;;;;;5034076;28;20302;-82
2023/06/12 07:33:21;;;;;;;;;;;22.90;52.30;;;;;;5081634;28;19955;-82
2023/06/12 07:35:47;;;;;;;;;;;22.90;52.60;;;;;;5052689;28;19927;-82
2023/06/12 07:38:13;;;;;;;;;;;22.90;52.60;;;;;;5050978;28;20305;-82
2023/06/12 07:40:38;;;;;;;;;;;23.00;51.80;;;;;;5046310;28;19924;-83
2023/06/12 07:43:04;;;;;;;;;;;23.10;51.60;;;;;;5046426;28;19951;-82
2023/06/12 07:45:30;;;;;;;;;;;23.20;52.10;;;;;;5047040;28;19999;-83
2023/06/12 07:47:57;;;;;;;;;;;23.20;50.10;;;;;;5049374;28;20312;-82
2023/06/12 07:50:26;;;;;;;;;;;23.30;50.70;;;;;;5070539;28;19920;-82
2023/06/12 07:52:51;;;;;;;;;;;23.50;50.00;;;;;;5053658;28;19923;-82
2023/06/12 07:55:18;;;;;;;;;;;23.60;49.40;;;;;;5054366;28;19908;-83
2023/06/12 07:57:43;;;;;;;;;;;23.80;48.10;;;;;;5066945;28;21385;-83
2023/06/12 08:00:09;;;;;;;;;;;23.80;48.10;;;;;;5078864;28;19901;-83
2023/06/12 08:02:35;;;;;;;;;;;24.00;47.90;;;;;;5057897;28;19995;-82
2023/06/12 08:05:03;;;;;;;;;;;24.00;48.90;;;;;;5059657;28;19912;-82
2023/06/12 08:07:30;;;;;;;;;;;24.00;50.70;;;;;;5055087;28;20290;-83
2023/06/12 08:09:56;;;;;;;;;;;24.00;48.00;;;;;;5071194;28;19909;-82
2023/06/12 08:12:22;;;;;;;;;;;24.10;46.70;;;;;;5054294;28;19926;-82
2023/06/12 08:14:48;;;;;;;;;;;24.30;46.00;;;;;;5074234;28;20001;-82
2023/06/12 08:17:14;;;;;;;;;;;24.30;46.70;;;;;;5055934;28;19912;-83
2023/06/12 08:19:41;;;;;;;;;;;24.50;46.20;;;;;;5056669;28;20289;-83
2023/06/12 08:22:11;;;;;;;;;;;24.50;45.60;;;;;;5052575;28;20370;-83
2023/06/12 08:24:38;;;;;;;;;;;24.60;45.80;;;;;;5063109;28;20447;-83
2023/06/12 08:27:04;;;;;;;;;;;24.70;44.40;;;;;;5055709;28;19995;-82
2023/06/12 08:29:29;;;;;;;;;;;24.80;46.00;;;;;;5055878;28;19952;-83
2023/06/12 08:31:55;;;;;;;;;;;25.00;44.00;;;;;;5057292;28;19912;-83
2023/06/12 08:34:24;;;;;;;;;;;25.10;43.30;;;;;;5056349;28;20007;-83
2023/06/12 08:36:50;;;;;;;;;;;25.10;43.40;;;;;;5058468;28;20012;-83
2023/06/12 08:39:15;;;;;;;;;;;25.10;43.60;;;;;;5058065;28;19915;-83
2023/06/12 08:41:49;;;;;;;;;;;25.10;44.00;;;;;;5058292;28;20439;-83
2023/06/12 08:44:15;;;;;;;;;;;25.10;43.60;;;;;;5056227;28;19972;-83
2023/06/12 08:46:41;;;;;;;;;;;25.10;44.70;;;;;;5058142;28;19971;-83
2023/06/12 08:49:07;;;;;;;;;;;25.00;44.60;;;;;;5080395;28;19920;-83
2023/06/12 08:51:33;;;;;;;;;;;25.10;44.10;;;;;;5085344;28;19916;-83
2023/06/12 08:53:59;;;;;;;;;;;25.00;44.60;;;;;;5078559;28;19970;-83
2023/06/12 08:56:26;;;;;;;;;;;25.00;44.50;;;;;;5059408;28;19970;-81
2023/06/12 08:58:51;;;;;;;;;;;25.10;43.30;;;;;;5077775;28;19916;-80
2023/06/12 09:01:17;;;;;;;;;;;25.10;43.60;;;;;;5060493;28;19913;-82
2023/06/12 09:03:45;;;;;;;;;;;25.20;45.20;;;;;;5060443;28;19958;-82
2023/06/12 09:06:11;;;;;;;;;;;25.30;45.50;;;;;;5077047;28;19919;-81
2023/06/12 09:08:38;;;;;;;;;;;25.30;44.80;;;;;;5058866;28;19908;-82
2023/06/12 09:11:04;;;;;;;;;;;25.40;44.10;;;;;;5059439;28;19984;-82
2023/06/12 09:13:38;;;;;;;;;;;25.50;44.90;;;;;;5077043;28;19909;-81
2023/06/12 09:16:09;;;;;;;;;;;25.50;45.00;;;;;;5059607;28;20301;-81
2023/06/12 09:18:46;;;;;;;;;;;25.50;43.10;;;;;;5059323;28;19912;-82
2023/06/12 09:21:12;;;;;;;;;;;25.60;44.50;;;;;;5059179;28;19948;-81
2023/06/12 09:23:40;;;;;;;;;;;25.80;44.20;;;;;;5056854;28;20294;-81
2023/06/12 09:26:15;;;;;;;;;;;26.00;43.80;;;;;;5056843;28;19999;-81
2023/06/12 09:28:44;;;;;;;;;;;26.00;43.50;;;;;;5059075;28;19947;-81
2023/06/12 09:31:10;;;;;;;;;;;26.20;42.50;;;;;;5080518;28;19959;-81
2023/06/12 09:33:37;;;;;;;;;;;26.10;43.00;;;;;;5085405;28;20009;-82
2023/06/12 09:36:03;;;;;;;;;;;26.10;42.00;;;;;;5066953;28;19908;-82
2023/06/12 09:38:29;;;;;;;;;;;26.20;43.60;;;;;;5063729;28;21715;-82
2023/06/12 09:40:55;;;;;;;;;;;26.20;43.10;;;;;;5062588;28;19909;-82
2023/06/12 09:43:21;;;;;;;;;;;26.20;43.80;;;;;;5061446;28;20037;-82
2023/06/12 09:45:49;;;;;;;;;;;26.50;44.30;;;;;;5076307;28;20378;-82
2023/06/12 09:48:16;;;;;;;;;;;26.50;43.30;;;;;;5059589;28;19920;-81
2023/06/12 09:50:42;;;;;;;;;;;26.40;42.90;;;;;;5059267;28;19927;-82
2023/06/12 09:53:09;;;;;;;;;;;26.30;42.60;;;;;;5084521;28;19908;-84
2023/06/12 09:55:34;;;;;;;;;;;26.20;44.30;;;;;;5063473;28;19966;-84
2023/06/12 09:58:02;;;;;;;;;;;26.30;44.70;;;;;;5062028;28;20502;-84
2023/06/12 10:00:27;;;;;;;;;;;26.40;43.20;;;;;;5079486;28;19916;-83
2023/06/12 10:03:00;;;;;;;;;;;26.30;44.20;;;;;;5094231;28;19912;-81
2023/06/12 10:05:37;;;;;;;;;;;26.40;42.30;;;;;;5061566;28;19927;-82
2023/06/12 10:08:06;;;;;;;;;;;26.30;43.70;;;;;;5078817;28;19920;-81
2023/06/12 10:10:34;;;;;;;;;;;26.40;44.30;;;;;;5081117;28;19923;-82
2023/06/12 10:13:00;;;;;;;;;;;26.30;46.00;;;;;;5063320;28;19923;-83
2023/06/12 10:15:26;;;;;;;;;;;26.50;43.80;;;;;;5055066;28;20049;-82
2023/06/12 10:17:52;;;;;;;;;;;26.60;42.70;;;;;;5058672;28;19913;-84
2023/06/12 10:20:22;;;;;;;;;;;26.70;42.40;;;;;;5056903;28;19913;-82
2023/06/12 10:22:48;;;;;;;;;;;26.70;43.70;;;;;;5074486;28;19909;-84
2023/06/12 10:25:14;;;;;;;;;;;26.80;43.30;;;;;;5063139;28;19958;-84
2023/06/12 10:27:45;;;;;;;;;;;26.80;42.10;;;;;;5068666;28;20354;-85
2023/06/12 10:30:23;;;;;;;;;;;26.80;41.80;;;;;;5055449;28;19913;-85
2023/06/12 10:33:16;;;;;;;;;;;26.60;42.50;;;;;;5055718;28;20423;-85
2023/06/12 10:35:41;;;;;;;;;;;26.60;42.60;;;;;;5047787;28;19916;-84
2023/06/12 10:38:16;;;;;;;;;;;26.80;45.50;;;;;;5053210;28;20282;-84
2023/06/12 10:40:44;;;;;;;;;;;27.00;42.30;;;;;;5055467;28;19928;-84
2023/06/12 10:46:44;;;;;;;;;;;27.10;42.00;;;;;;5060425;28;20011;-83
2023/06/12 10:49:10;;;;;;;;;;;27.00;42.10;;;;;;5053903;28;19912;-82
2023/06/12 10:51:46;;;;;;;;;;;27.00;43.60;;;;;;5054330;28;19962;-83
2023/06/12 10:54:15;;;;;;;;;;;27.00;43.30;;;;;;5059137;28;20388;-83
2023/06/12 10:57:22;;;;;;;;;;;27.00;42.60;;;;;;5053872;28;20342;-86
2023/06/12 10:59:48;;;;;;;;;;;27.00;43.20;;;;;;5049567;28;19915;-85
2023/06/12 11:02:42;;;;;;;;;;;26.90;41.60;;;;;;5053875;28;19917;-85
2023/06/12 11:05:13;;;;;;;;;;;27.00;42.30;;;;;;5056207;28;19960;-83
2023/06/12 11:07:51;;;;;;;;;;;27.00;42.40;;;;;;5070175;28;19924;-85
2023/06/12 11:10:49;;;;;;;;;;;27.10;39.90;;;;;;5052482;28;19975;-85
2023/06/12 11:13:14;;;;;;;;;;;27.20;41.90;;;;;;5022818;28;20412;-82
2023/06/12 11:15:46;;;;;;;;;;;27.60;40.90;;;;;;5074018;28;19912;-84
2023/06/12 11:18:12;;;;;;;;;;;28.00;39.10;;;;;;5054875;28;20380;-82
2023/06/12 11:20:38;;;;;;;;;;;28.20;39.00;;;;;;5056444;28;19941;-83
2023/06/12 11:23:05;;;;;;;;;;;28.10;37.30;;;;;;5056205;28;19913;-82
2023/06/12 11:25:44;;;;;;;;;;;28.00;37.50;;;;;;5061668;28;19988;-84
2023/06/12 11:28:13;;;;;;;;;;;28.20;39.10;;;;;;5062018;28;20017;-84
2023/06/12 11:31:03;;;;;;;;;;;28.40;37.30;;;;;;5049503;28;19919;-85
2023/06/12 11:33:31;;;;;;;;;;;28.50;37.40;;;;;;5071832;28;19947;-83
2023/06/12 11:39:34;;;;;;;;;;;28.60;35.70;;;;;;4966015;28;20049;-83
2023/06/12 11:45:29;;;;;;;;;;;28.30;36.50;;;;;;4969566;28;19938;-83
2023/06/12 11:51:22;;;;;;;;;;;27.60;35.80;;;;;;4906680;29;19946;-83
2023/06/12 11:53:51;;;;;;;;;;;27.20;35.90;;;;;;4912553;29;20051;-85
2023/06/12 11:56:34;;;;;;;;;;;27.10;36.60;;;;;;4943153;28;19940;-84
2023/06/12 11:59:02;;;;;;;;;;;27.10;38.50;;;;;;5067142;28;19920;-83
2023/06/12 12:01:32;;;;;;;;;;;27.20;37.90;;;;;;5047779;28;19919;-85
2023/06/12 12:04:03;;;;;;;;;;;27.40;34.90;;;;;;5061940;28;20537;-84
2023/06/12 12:06:31;;;;;;;;;;;27.20;36.30;;;;;;5074455;28;19924;-83
2023/06/12 12:08:58;;;;;;;;;;;27.30;36.20;;;;;;5070230;28;20114;-84
2023/06/12 12:11:28;;;;;;;;;;;27.20;36.30;;;;;;5054152;28;19986;-82
2023/06/12 12:14:01;;;;;;;;;;;27.40;36.20;;;;;;5059194;28;19920;-81
2023/06/12 12:16:28;;;;;;;;;;;27.60;36.50;;;;;;5046964;28;20384;-82
2023/06/12 12:18:54;;;;;;;;;;;27.70;35.40;;;;;;5064497;28;19927;-82
2023/06/12 12:21:21;;;;;;;;;;;27.80;35.70;;;;;;5085437;28;19999;-81
2023/06/12 12:23:47;;;;;;;;;;;27.80;35.20;;;;;;5072761;28;19923;-83
2023/06/12 12:26:12;;;;;;;;;;;27.60;36.50;;;;;;5075439;28;19913;-81
2023/06/12 12:28:38;;;;;;;;;;;27.60;36.60;;;;;;5074438;28;19916;-81
2023/06/12 12:31:03;;;;;;;;;;;27.60;36.80;;;;;;5086737;28;19956;-81
2023/06/12 12:33:29;;;;;;;;;;;27.60;36.20;;;;;;5075161;28;19923;-82
2023/06/12 12:35:57;;;;;;;;;;;27.60;37.60;;;;;;5052642;28;19912;-81
2023/06/12 12:38:22;;;;;;;;;;;27.60;36.40;;;;;;5069921;28;19944;-80
2023/06/12 12:40:48;;;;;;;;;;;27.60;36.30;;;;;;5059460;28;19913;-81
2023/06/12 12:43:13;;;;;;;;;;;27.60;36.60;;;;;;5067512;28;19913;-81
2023/06/12 12:45:39;;;;;;;;;;;27.70;35.90;;;;;;5070333;28;19950;-82
2023/06/12 12:48:05;;;;;;;;;;;27.90;36.10;;;;;;5070879;28;19913;-81
2023/06/12 12:50:31;;;;;;;;;;;27.90;36.50;;;;;;5062524;28;19916;-82
2023/06/12 12:52:56;;;;;;;;;;;27.70;36.50;;;;;;5059093;28;19917;-82
2023/06/12 12:55:32;;;;;;;;;;;27.60;36.00;;;;;;5052939;28;20399;-82
2023/06/12 12:58:02;;;;;;;;;;;27.50;36.60;;;;;;5056039;28;19912;-82
2023/06/12 13:00:34;;;;;;;;;;;27.60;37.60;;;;;;5055268;28;19996;-81
2023/06/12 13:03:00;;;;;;;;;;;27.70;35.20;;;;;;5049154;28;19912;-82
2023/06/12 13:05:25;;;;;;;;;;;27.80;36.10;;;;;;5051034;28;20318;-82
2023/06/12 13:08:00;;;;;;;;;;;27.80;36.00;;;;;;5055867;28;19913;-83
2023/06/12 13:10:26;;;;;;;;;;;27.80;36.70;;;;;;5045957;28;20357;-82
2023/06/12 13:12:52;;;;;;;;;;;27.70;36.40;;;;;;5102972;22;19973;-80
2023/06/12 13:15:17;;;;;;;;;;;27.60;36.60;;;;;;5132308;27;19959;-80
2023/06/12 13:17:43;;;;;;;;;;;27.60;36.70;;;;;;5113566;28;19957;-81
2023/06/12 13:20:09;;;;;;;;;;;27.60;37.00;;;;;;5112832;27;19912;-80
2023/06/12 13:22:35;;;;;;;;;;;27.60;38.00;;;;;;5114788;27;20006;-80
2023/06/12 13:25:01;;;;;;;;;;;27.60;35.10;;;;;;5136570;27;20359;-82
2023/06/12 13:27:26;;;;;;;;;;;27.70;36.10;;;;;;5129050;27;19964;-81
2023/06/12 13:29:52;;;;;;;;;;;27.60;35.00;;;;;;5132292;27;19915;-80
2023/06/12 13:32:17;;;;;;;;;;;27.60;35.30;;;;;;5110872;27;20006;-81
2023/06/12 13:34:43;;;;;;;;;;;27.60;36.20;;;;;;5114634;27;19956;-80
2023/06/12 13:37:08;;;;;;;;;;;27.60;35.30;;;;;;5111054;27;19911;-80
2023/06/12 13:39:34;;;;;;;;;;;27.60;37.10;;;;;;5114728;27;19919;-82
2023/06/12 13:41:59;;;;;;;;;;;27.60;35.40;;;;;;5133585;27;19912;-83
2023/06/12 13:44:25;;;;;;;;;;;27.60;34.70;;;;;;5120140;27;19938;-82
2023/06/12 13:46:51;;;;;;;;;;;27.50;34.80;;;;;;5136392;27;19943;-82
2023/06/12 13:49:17;;;;;;;;;;;27.50;33.90;;;;;;5120938;27;19915;-79
2023/06/12 13:51:43;;;;;;;;;;;27.50;35.70;;;;;;5128383;27;20000;-82
2023/06/12 13:54:09;;;;;;;;;;;27.60;35.30;;;;;;5113163;27;19911;-79
2023/06/12 13:56:35;;;;;;;;;;;27.60;34.20;;;;;;5112221;27;19982;-80
2023/06/12 13:59:01;;;;;;;;;;;27.70;34.50;;;;;;5118972;27;19916;-80
2023/06/12 14:01:30;;;;;;;;;;;27.60;33.30;;;;;;5117103;27;19955;-81
2023/06/12 14:03:57;;;;;;;;;;;27.50;34.20;;;;;;5120211;27;20371;-79
2023/06/12 14:06:23;;;;;;;;;;;27.50;34.50;;;;;;5114747;27;20401;-81
2023/06/12 14:08:49;;;;;;;;;;;27.60;34.10;;;;;;5112845;27;19912;-80
2023/06/12 14:11:15;;;;;;;;;;;27.60;34.10;;;;;;5117834;27;19941;-80
2023/06/12 14:13:41;;;;;;;;;;;27.60;34.10;;;;;;5137295;27;19919;-81
2023/06/12 14:16:08;;;;;;;;;;;27.60;34.30;;;;;;5134580;27;19907;-84
2023/06/12 14:18:33;;;;;;;;;;;27.70;34.10;;;;;;5126791;22;19957;-81
2023/06/12 14:21:11;;;;;;;;;;;27.80;34.00;;;;;;5082870;28;19916;-83
2023/06/12 14:23:39;;;;;;;;;;;27.80;33.40;;;;;;5127272;22;19935;-81
2023/06/12 14:26:04;;;;;;;;;;;27.80;33.60;;;;;;5093301;28;19912;-82
2023/06/12 14:28:30;;;;;;;;;;;27.70;33.50;;;;;;5071367;28;20266;-82
2023/06/12 14:30:55;;;;;;;;;;;27.60;34.50;;;;;;5092990;28;20389;-81
2023/06/12 14:33:21;;;;;;;;;;;27.60;34.50;;;;;;5070549;28;19919;-81
2023/06/12 14:35:46;;;;;;;;;;;27.70;33.90;;;;;;5063573;28;19919;-83
2023/06/12 14:38:12;;;;;;;;;;;27.70;33.90;;;;;;5048473;28;19958;-83
2023/06/12 14:40:38;;;;;;;;;;;27.70;35.60;;;;;;5054953;28;19923;-81
2023/06/12 14:43:03;;;;;;;;;;;27.70;35.50;;;;;;5070783;28;20270;-83
2023/06/12 14:45:29;;;;;;;;;;;27.70;35.90;;;;;;5068009;28;19912;-84
2023/06/12 14:47:55;;;;;;;;;;;27.70;34.70;;;;;;5072837;28;19977;-81
2023/06/12 14:50:21;;;;;;;;;;;27.60;33.00;;;;;;5054290;28;19917;-81